Time;durP1;ratioP1;P1;durP2;ratioP2;P2;SDS_P1;SDS_P2;PMS_P1;PMS_P2;Temp;Humidity;BMP_temperature;BMP_pressure;BME280_temperature;BME280_humidity;BME280_pressure;Samples;Min_cycle;Max_cycle;Signal;HPM_P1;HPM_P2
2023/12/04 00:01:47;;;;;;;19.75;9.98;;;;;;;0.68;89.78;100959.50;5027355;28;20626;-68
2023/12/04 00:04:12;;;;;;;20.75;10.25;;;;;;;0.77;87.61;100920.81;5027490;28;20021;-67
2023/12/04 00:06:38;;;;;;;17.23;9.55;;;;;;;0.76;87.88;100927.56;5005835;28;20034;-67
2023/12/04 00:09:04;;;;;;;20.58;10.45;;;;;;;0.73;89.62;100956.31;5025463;28;20036;-68
2023/12/04 00:11:29;;;;;;;17.63;9.80;;;;;;;0.79;86.83;100904.78;5041348;28;20038;-67
2023/12/04 00:13:55;;;;;;;20.27;10.10;;;;;;;0.76;88.20;100921.59;5024887;28;20518;-68
2023/12/04 00:16:20;;;;;;;20.02;10.80;;;;;;;0.73;89.36;100935.09;5039729;28;20047;-68
2023/12/04 00:18:45;;;;;;;23.35;11.23;;;;;;;0.73;88.16;100919.84;5013250;28;20069;-68
2023/12/04 00:21:12;;;;;;;23.92;11.98;;;;;;;0.70;88.97;100935.00;5029637;28;20095;-67
2023/12/04 00:23:38;;;;;;;22.15;11.07;;;;;;;0.68;88.32;100914.56;5025443;28;20033;-68
2023/12/04 00:26:04;;;;;;;18.58;9.77;;;;;;;0.68;88.07;100909.50;5022904;28;20104;-68
2023/12/04 00:28:29;;;;;;;20.77;9.70;;;;;;;0.68;88.38;100918.78;5030112;28;20033;-67
2023/12/04 00:30:55;;;;;;;22.42;11.48;;;;;;;0.60;89.60;100938.03;5040583;28;20489;-68
2023/12/04 00:33:20;;;;;;;18.75;10.30;;;;;;;0.63;88.28;100912.69;5030743;28;20037;-68
2023/12/04 00:35:46;;;;;;;20.40;10.80;;;;;;;0.57;89.01;100923.53;5027847;28;20041;-67
2023/12/04 00:38:11;;;;;;;15.88;10.00;;;;;;;0.54;89.85;100938.69;5060956;28;20083;-68
2023/12/04 00:40:36;;;;;;;18.00;9.95;;;;;;;0.53;89.07;100921.69;5022285;28;20087;-68
2023/12/04 00:43:02;;;;;;;17.58;9.57;;;;;;;0.52;89.78;100925.06;5030353;28;20641;-67
2023/12/04 00:45:27;;;;;;;21.00;10.52;;;;;;;0.51;89.84;100930.09;5053027;28;20034;-67
2023/12/04 00:47:53;;;;;;;20.33;10.57;;;;;;;0.54;89.55;100918.34;5027371;28;20128;-67
2023/12/04 00:50:19;;;;;;;17.95;11.13;;;;;;;0.50;90.27;100924.13;5026234;28;20040;-68
2023/12/04 00:52:44;;;;;;;19.27;10.77;;;;;;;0.58;88.94;100906.59;5020252;28;20025;-68
2023/12/04 00:55:09;;;;;;;21.65;11.35;;;;;;;0.56;88.53;100892.94;5028073;28;20041;-68
2023/12/04 00:57:35;;;;;;;16.77;9.95;;;;;;;0.52;89.46;100912.34;5027323;28;20064;-68
2023/12/04 01:00:01;;;;;;;18.73;10.10;;;;;;;0.52;89.92;100912.34;5026864;28;20710;-68
2023/12/04 01:02:26;;;;;;;18.92;11.15;;;;;;;0.51;89.07;100894.47;5024201;28;20082;-68
2023/12/04 01:04:51;;;;;;;21.30;10.05;;;;;;;0.50;89.29;100890.22;5022942;28;20292;-68
2023/12/04 01:07:17;;;;;;;19.75;10.60;;;;;;;0.56;88.54;100880.22;5051974;28;20480;-68
2023/12/04 01:09:42;;;;;;;19.42;11.25;;;;;;;0.54;88.51;100890.38;5034609;28;20038;-68
2023/12/04 01:12:08;;;;;;;20.83;10.63;;;;;;;0.63;87.23;100870.34;5026706;28;20075;-68
2023/12/04 01:14:33;;;;;;;16.80;10.48;;;;;;;0.60;88.36;100879.53;5059227;28;20045;-68
2023/12/04 01:16:58;;;;;;;18.92;10.90;;;;;;;0.56;88.14;100885.31;5029129;28;20037;-67
2023/12/04 01:19:24;;;;;;;21.27;10.98;;;;;;;0.57;88.17;100881.97;5024694;28;20675;-68
2023/12/04 01:21:49;;;;;;;18.10;10.68;;;;;;;0.59;87.22;100865.94;5040891;28;20568;-67
2023/12/04 01:24:15;;;;;;;19.95;10.48;;;;;;;0.56;88.39;100880.22;5008521;28;20033;-68
2023/12/04 01:26:40;;;;;;;18.30;10.25;;;;;;;0.52;88.59;100871.66;5041429;28;20064;-67
2023/12/04 01:29:06;;;;;;;20.40;10.23;;;;;;;0.58;87.57;100863.38;5022876;28;20084;-67
2023/12/04 01:31:32;;;;;;;18.23;9.85;;;;;;;0.58;87.98;100866.78;5026372;28;20069;-68
2023/12/04 01:33:57;;;;;;;20.02;11.15;;;;;;;0.55;87.89;100856.50;5019246;28;20033;-68
2023/12/04 01:36:22;;;;;;;19.42;11.40;;;;;;;0.56;88.58;100872.59;5024858;28;20108;-68
2023/12/04 01:38:48;;;;;;;21.02;10.93;;;;;;;0.62;87.58;100855.00;5023602;28;20041;-67
2023/12/04 01:41:13;;;;;;;19.80;11.73;;;;;;;0.59;87.78;100862.53;5040170;28;20368;-68
2023/12/04 01:43:39;;;;;;;19.95;10.88;;;;;;;0.58;88.56;100871.88;5021218;28;20013;-68
2023/12/04 01:46:06;;;;;;;18.95;10.10;;;;;;;0.58;87.82;100848.97;5023143;28;20068;-68
2023/12/04 01:48:31;;;;;;;19.25;10.90;;;;;;;0.61;86.95;100823.66;5021554;28;20037;-68
2023/12/04 01:51:00;;;;;;;17.52;9.55;;;;;;;0.62;86.54;100825.34;5023645;28;20046;-68
2023/12/04 01:53:26;;;;;;;20.10;10.82;;;;;;;0.63;86.62;100823.69;5024078;28;20037;-67
2023/12/04 01:55:51;;;;;;;19.77;10.95;;;;;;;0.60;86.97;100834.63;5024521;28;20416;-67
2023/12/04 01:58:17;;;;;;;20.70;10.85;;;;;;;0.56;86.77;100825.16;5017286;28;20488;-67
2023/12/04 02:00:43;;;;;;;18.65;10.23;;;;;;;0.60;86.65;100827.00;5018916;28;20045;-68
2023/12/04 02:03:09;;;;;;;21.50;10.43;;;;;;;0.58;85.87;100798.13;5021904;28;20048;-67
2023/12/04 02:05:35;;;;;;;17.63;9.88;;;;;;;0.60;85.90;100804.09;5024491;28;20049;-67
2023/12/04 02:08:01;;;;;;;20.38;10.45;;;;;;;0.59;85.02;100788.78;5021682;28;20070;-67
2023/12/04 02:10:26;;;;;;;18.55;10.00;;;;;;;0.66;84.74;100775.44;5055427;28;20021;-68
2023/12/04 02:12:52;;;;;;;17.33;9.57;;;;;;;0.68;83.79;100761.09;5027640;28;20036;-68
2023/12/04 02:15:17;;;;;;;18.20;9.93;;;;;;;0.65;84.04;100764.41;5023516;28;20052;-67
2023/12/04 02:17:44;;;;;;;17.48;10.35;;;;;;;0.64;84.34;100770.34;5027199;28;20462;-67
2023/12/04 02:20:12;;;;;;;17.10;9.77;;;;;;;0.64;84.91;100788.13;5023599;28;20568;-70
2023/12/04 02:22:38;;;;;;;20.40;10.60;;;;;;;0.64;83.27;100757.63;5025117;28;20029;-68
2023/12/04 02:25:04;;;;;;;16.98;8.95;;;;;;;0.66;83.36;100767.81;5015072;28;20040;-68
2023/12/04 02:27:38;;;;;;;19.05;9.88;;;;;;;0.62;84.15;100771.06;5027084;28;20026;-68
2023/12/04 02:30:07;;;;;;;17.40;9.77;;;;;;;0.70;83.04;100754.41;5024953;28;20046;-68
2023/12/04 02:32:36;;;;;;;18.52;9.55;;;;;;;0.60;84.55;100786.31;5053262;28;20030;-69
2023/12/04 02:35:08;;;;;;;20.63;10.45;;;;;;;0.59;83.68;100761.69;5023489;28;20044;-69
2023/12/04 02:37:34;;;;;;;16.10;9.27;;;;;;;0.59;84.23;100758.25;5023635;28;20030;-69
2023/12/04 02:40:00;;;;;;;17.38;9.93;;;;;;;0.59;83.59;100740.47;5022596;28;20029;-69
2023/12/04 02:42:25;;;;;;;19.13;9.50;;;;;;;0.59;82.96;100736.25;5020220;28;20025;-69
2023/12/04 02:44:52;;;;;;;18.40;10.38;;;;;;;0.58;83.91;100746.38;5054886;28;20486;-69
2023/12/04 02:47:18;;;;;;;17.50;9.98;;;;;;;0.55;83.67;100756.47;5024095;28;20111;-69
2023/12/04 02:49:43;;;;;;;17.63;9.40;;;;;;;0.60;81.98;100719.31;5031161;28;20620;-68
2023/12/04 02:52:09;;;;;;;16.02;8.95;;;;;;;0.53;83.90;100751.31;5057557;28;20040;-68
2023/12/04 02:54:34;;;;;;;18.73;10.18;;;;;;;0.51;83.67;100744.44;5004163;28;20408;-68
2023/12/04 02:56:59;;;;;;;18.67;10.95;;;;;;;0.46;84.55;100758.72;5038218;28;20468;-68
2023/12/04 02:59:25;;;;;;;18.20;9.48;;;;;;;0.51;84.15;100752.06;5038101;28;20518;-69
2023/12/04 03:01:50;;;;;;;19.92;9.63;;;;;;;0.51;83.98;100736.81;5026645;28;20140;-69
2023/12/04 03:04:16;;;;;;;16.63;9.02;;;;;;;0.51;83.73;100735.16;5042885;28;20484;-69
2023/12/04 03:06:41;;;;;;;17.88;9.95;;;;;;;0.54;83.49;100734.38;5057649;28;20053;-68
2023/12/04 03:09:07;;;;;;;18.15;9.65;;;;;;;0.53;83.36;100728.41;5024194;28;20061;-69
2023/12/04 03:11:32;;;;;;;17.33;9.82;;;;;;;0.50;83.85;100730.88;5026146;28;20060;-69
2023/12/04 03:14:00;;;;;;;17.85;10.25;;;;;;;0.51;83.61;100724.09;5019140;28;20037;-69
2023/12/04 03:16:25;;;;;;;19.13;10.45;;;;;;;0.52;83.89;100730.94;5025621;28;20116;-68
2023/12/04 03:18:51;;;;;;;18.30;10.68;;;;;;;0.49;83.79;100716.44;5029036;28;20116;-68
2023/12/04 03:21:16;;;;;;;18.27;10.57;;;;;;;0.45;84.07;100724.78;5026227;28;20029;-69
2023/12/04 03:23:42;;;;;;;17.55;9.88;;;;;;;0.43;84.18;100720.47;5022625;28;20129;-69
2023/12/04 03:26:07;;;;;;;17.40;9.98;;;;;;;0.45;84.22;100721.38;5042299;28;20034;-68
2023/12/04 03:28:32;;;;;;;20.15;11.15;;;;;;;0.49;83.63;100707.94;5024782;28;20033;-68
2023/12/04 03:30:58;;;;;;;21.27;11.70;;;;;;;0.43;84.32;100723.00;5028013;28;20037;-69
2023/12/04 03:33:23;;;;;;;20.48;10.65;;;;;;;0.42;84.56;100719.59;5027219;28;20496;-69
2023/12/04 03:35:49;;;;;;;16.75;10.13;;;;;;;0.45;83.50;100709.53;5025835;28;20653;-69
2023/12/04 03:38:14;;;;;;;19.38;10.18;;;;;;;0.43;84.38;100721.34;5059978;28;20572;-68
2023/12/04 03:40:39;;;;;;;18.92;11.05;;;;;;;0.49;83.96;100705.41;5062379;28;20029;-68
2023/12/04 03:43:05;;;;;;;18.38;9.77;;;;;;;0.46;83.51;100688.38;5027826;28;20519;-68
2023/12/04 03:45:30;;;;;;;16.33;10.02;;;;;;;0.50;82.95;100681.72;5030289;28;20029;-68
2023/12/04 03:47:56;;;;;;;17.67;10.20;;;;;;;0.48;83.24;100685.88;5045817;28;20245;-68
2023/12/04 03:50:21;;;;;;;18.63;10.93;;;;;;;0.46;83.43;100679.88;5030576;28;20044;-68
2023/12/04 03:52:47;;;;;;;16.42;10.68;;;;;;;0.41;83.75;100700.06;5027204;28;20099;-68
2023/12/04 03:55:12;;;;;;;19.60;10.45;;;;;;;0.41;82.95;100672.09;5029967;28;20591;-68
2023/12/04 03:57:38;;;;;;;18.67;10.13;;;;;;;0.42;84.07;100706.91;5028746;28;20499;-68
2023/12/04 04:00:04;;;;;;;19.10;11.05;;;;;;;0.43;83.26;100682.34;5029700;28;20033;-69
2023/12/04 04:02:30;;;;;;;17.15;9.65;;;;;;;0.43;82.85;100664.53;5024942;28;20654;-68
2023/12/04 04:04:55;;;;;;;17.95;10.05;;;;;;;0.40;83.61;100685.66;5057481;28;20033;-68
2023/12/04 04:07:21;;;;;;;20.55;11.10;;;;;;;0.45;82.67;100666.31;5054524;28;20500;-68
2023/12/04 04:09:46;;;;;;;19.23;9.70;;;;;;;0.40;83.32;100672.06;5027335;28;20052;-68
2023/12/04 04:12:12;;;;;;;18.08;9.90;;;;;;;0.44;82.64;100671.38;5027140;28;20063;-69
2023/12/04 04:14:37;;;;;;;17.15;10.07;;;;;;;0.40;83.51;100685.66;5022714;28;20085;-69
2023/12/04 04:17:03;;;;;;;20.80;10.43;;;;;;;0.43;83.55;100679.78;5006313;28;20393;-68
2023/12/04 04:19:29;;;;;;;19.38;10.77;;;;;;;0.39;83.99;100675.41;5056593;28;20034;-69
2023/12/04 04:21:54;;;;;;;18.75;10.77;;;;;;;0.42;83.27;100668.75;5026278;28;20091;-68
2023/12/04 04:24:20;;;;;;;21.10;11.27;;;;;;;0.38;84.05;100666.09;5027295;28;20033;-69
2023/12/04 04:26:45;;;;;;;19.92;10.82;;;;;;;0.36;84.38;100680.41;5024189;28;20053;-68
2023/12/04 04:29:11;;;;;;;19.45;11.13;;;;;;;0.37;83.99;100666.91;5022865;28;20446;-68
2023/12/04 04:31:36;;;;;;;20.50;11.40;;;;;;;0.35;83.51;100653.28;5022551;28;20500;-68
2023/12/04 04:34:02;;;;;;;18.90;10.93;;;;;;;0.35;84.02;100651.56;5019488;28;20037;-68
2023/12/04 04:36:27;;;;;;;18.98;11.45;;;;;;;0.35;83.37;100649.03;5023593;28;20064;-68
2023/12/04 04:38:53;;;;;;;23.75;11.68;;;;;;;0.30;84.59;100680.22;5023541;28;20128;-68
2023/12/04 04:41:18;;;;;;;18.73;10.63;;;;;;;0.25;84.97;100677.56;5054266;28;20095;-68
2023/12/04 04:43:44;;;;;;;17.60;10.32;;;;;;;0.30;84.73;100672.59;5025148;28;20552;-68
2023/12/04 04:46:09;;;;;;;19.88;10.80;;;;;;;0.34;84.70;100659.19;5024465;28;20064;-68
2023/12/04 04:48:35;;;;;;;18.70;11.02;;;;;;;0.35;85.27;100678.72;5020121;28;20596;-68
2023/12/04 04:51:00;;;;;;;18.50;10.25;;;;;;;0.34;85.32;100674.44;5024411;28;20047;-68
2023/12/04 04:53:26;;;;;;;21.80;11.07;;;;;;;0.32;85.81;100691.31;5057234;28;20033;-68
2023/12/04 04:55:52;;;;;;;19.92;11.15;;;;;;;0.30;86.20;100690.38;5023226;28;20103;-68
2023/12/04 04:58:17;;;;;;;20.10;10.07;;;;;;;0.31;84.74;100672.66;5061943;28;20385;-68
2023/12/04 05:00:44;;;;;;;18.02;10.63;;;;;;;0.35;85.60;100684.63;5028762;28;20583;-68
2023/12/04 05:03:09;;;;;;;21.52;11.10;;;;;;;0.32;85.47;100686.25;5024141;28;20408;-68
2023/12/04 05:05:35;;;;;;;19.33;10.68;;;;;;;0.32;85.33;100659.13;5054089;28;20041;-68
2023/12/04 05:08:00;;;;;;;22.35;10.93;;;;;;;0.30;85.49;100664.97;5023015;28;20168;-68
2023/12/04 05:10:25;;;;;;;21.88;11.73;;;;;;;0.30;85.33;100673.47;5026543;28;20026;-68
2023/12/04 05:12:51;;;;;;;21.70;12.20;;;;;;;0.28;86.22;100685.28;5060678;28;20037;-68
2023/12/04 05:15:16;;;;;;;20.95;10.88;;;;;;;0.30;85.96;100675.13;5021851;28;20663;-68
2023/12/04 05:17:42;;;;;;;19.45;11.98;;;;;;;0.31;86.86;100702.28;5036756;28;20112;-68
2023/12/04 05:20:08;;;;;;;21.83;12.38;;;;;;;0.33;86.36;100688.81;5023672;28;20047;-68
2023/12/04 05:22:35;;;;;;;17.98;11.02;;;;;;;0.31;86.22;100694.66;5020717;28;20099;-68
2023/12/04 05:25:01;;;;;;;20.42;11.68;;;;;;;0.33;86.42;100693.03;5052560;28;20037;-68
2023/12/04 05:27:26;;;;;;;20.83;12.50;;;;;;;0.36;86.47;100691.44;5024548;28;20095;-70
2023/12/04 05:29:52;;;;;;;21.33;12.60;;;;;;;0.36;86.53;100688.91;5025100;28;20412;-68
2023/12/04 05:32:17;;;;;;;23.17;12.57;;;;;;;0.37;86.83;100684.69;5054937;28;20496;-68
2023/12/04 05:34:43;;;;;;;20.38;12.07;;;;;;;0.37;86.17;100666.91;5021453;28;20053;-69
2023/12/04 05:37:08;;;;;;;22.23;13.07;;;;;;;0.38;86.20;100668.63;5021282;28;20037;-68
2023/12/04 05:39:34;;;;;;;20.17;12.25;;;;;;;0.41;86.34;100667.03;5024230;28;20038;-67
2023/12/04 05:41:59;;;;;;;22.52;12.80;;;;;;;0.43;86.08;100656.91;5021578;28;20137;-68
2023/12/04 05:44:25;;;;;;;21.75;12.73;;;;;;;0.44;85.23;100641.69;5040169;28;20083;-68
2023/12/04 05:46:50;;;;;;;24.15;12.05;;;;;;;0.44;86.10;100649.31;5024321;28;20037;-68
2023/12/04 05:49:15;;;;;;;24.08;12.50;;;;;;;0.46;85.91;100639.22;5022784;28;20028;-69
2023/12/04 05:51:41;;;;;;;20.40;12.63;;;;;;;0.46;85.59;100629.03;5024751;28;20044;-69
2023/12/04 05:54:08;;;;;;;22.00;12.45;;;;;;;0.46;85.35;100622.28;5020569;28;20049;-69
2023/12/04 05:56:33;;;;;;;21.60;12.65;;;;;;;0.51;85.74;100624.94;5038277;28;20025;-68
2023/12/04 05:58:58;;;;;;;28.52;13.15;;;;;;;0.51;86.13;100627.47;5022239;28;20041;-69
2023/12/04 06:01:24;;;;;;;25.20;13.05;;;;;;;0.50;86.03;100630.88;5023252;28;20026;-70
2023/12/04 06:03:49;;;;;;;23.13;12.65;;;;;;;0.51;86.02;100623.28;5050615;28;20037;-69
2023/12/04 06:06:15;;;;;;;19.75;11.95;;;;;;;0.53;85.73;100621.63;5025155;28;20034;-69
2023/12/04 06:08:42;;;;;;;20.90;11.80;;;;;;;0.55;85.88;100625.09;5026225;28;20061;-68
2023/12/04 06:11:07;;;;;;;22.67;13.00;;;;;;;0.53;86.31;100628.38;5025309;28;20053;-69
2023/12/04 06:13:33;;;;;;;25.65;12.88;;;;;;;0.51;85.58;100605.47;5023243;28;20026;-69
2023/12/04 06:15:58;;;;;;;21.92;13.63;;;;;;;0.53;85.06;100593.66;5025493;28;20041;-68
2023/12/04 06:18:24;;;;;;;20.50;11.43;;;;;;;0.52;85.79;100603.78;5022048;28;20117;-68
2023/12/04 06:20:49;;;;;;;21.67;11.77;;;;;;;0.51;85.09;100590.22;5020478;28;20099;-69
2023/12/04 06:23:15;;;;;;;21.15;11.35;;;;;;;0.52;85.05;100588.53;5017362;28;20041;-68
2023/12/04 06:25:41;;;;;;;23.45;13.65;;;;;;;0.55;84.57;100581.00;5033936;28;20508;-69
2023/12/04 06:28:07;;;;;;;21.33;12.30;;;;;;;0.53;84.51;100573.31;5021179;28;20129;-69
2023/12/04 06:30:33;;;;;;;20.27;12.13;;;;;;;0.49;85.53;100586.78;5017815;28;20496;-69
2023/12/04 06:32:59;;;;;;;22.90;12.27;;;;;;;0.53;85.08;100573.31;5021448;28;20047;-69
2023/12/04 06:35:25;;;;;;;24.45;11.85;;;;;;;0.56;85.04;100555.59;5023466;28;20045;-69
2023/12/04 06:37:54;;;;;;;22.65;11.77;;;;;;;0.60;84.14;100536.19;5010982;28;20041;-69
2023/12/04 06:40:20;;;;;;;20.45;11.65;;;;;;;0.59;84.45;100535.34;5025152;28;20030;-69
2023/12/04 06:42:46;;;;;;;22.55;13.25;;;;;;;0.55;85.56;100550.47;5023973;28;20068;-69
2023/12/04 06:45:12;;;;;;;22.13;12.35;;;;;;;0.50;85.87;100547.78;5060878;28;20479;-69
2023/12/04 06:47:40;;;;;;;21.48;12.50;;;;;;;0.49;85.61;100533.38;5028401;28;20034;-68
2023/12/04 06:50:06;;;;;;;22.25;12.25;;;;;;;0.46;86.35;100553.63;5057875;28;20044;-69
2023/12/04 06:52:31;;;;;;;24.38;12.82;;;;;;;0.41;86.53;100547.53;5058865;28;20042;-69
2023/12/04 06:54:56;;;;;;;24.38;13.15;;;;;;;0.38;86.56;100544.06;5044906;28;20041;-68
2023/12/04 06:57:22;;;;;;;26.48;14.65;;;;;;;0.34;87.74;100560.91;5041601;28;20404;-68
2023/12/04 06:59:47;;;;;;;22.92;12.30;;;;;;;0.34;87.22;100543.09;5029421;28;20042;-68
2023/12/04 07:02:13;;;;;;;21.70;12.88;;;;;;;0.35;86.50;100534.66;5025170;28;20033;-68
2023/12/04 07:04:39;;;;;;;20.30;11.63;;;;;;;0.32;86.91;100547.25;5025384;28;20033;-68
2023/12/04 07:07:05;;;;;;;21.00;12.68;;;;;;;0.31;86.71;100544.69;5041491;28;20065;-69
2023/12/04 07:09:34;;;;;;;23.40;14.02;;;;;;;0.32;86.89;100543.88;5028078;28;20092;-69
2023/12/04 07:12:00;;;;;;;23.50;12.60;;;;;;;0.31;87.23;100545.56;5025021;28;20025;-68
2023/12/04 07:14:26;;;;;;;20.00;11.60;;;;;;;0.31;86.55;100543.03;5028375;28;20037;-69
2023/12/04 07:16:51;;;;;;;23.60;12.40;;;;;;;0.32;85.92;100521.00;5028675;28;20030;-68
2023/12/04 07:19:17;;;;;;;24.45;12.32;;;;;;;0.34;86.81;100539.69;5025005;28;20061;-68
2023/12/04 07:21:43;;;;;;;25.35;13.13;;;;;;;0.32;87.20;100529.47;5002124;28;20069;-67
2023/12/04 07:24:08;;;;;;;24.50;13.73;;;;;;;0.33;87.14;100532.88;5029451;28;20694;-67
2023/12/04 07:26:35;;;;;;;24.10;12.98;;;;;;;0.32;87.18;100533.72;5028034;28;20042;-68
2023/12/04 07:29:02;;;;;;;21.13;12.45;;;;;;;0.31;86.74;100531.97;5028437;28;20037;-68
2023/12/04 07:31:27;;;;;;;21.27;12.45;;;;;;;0.32;86.83;100523.56;5029880;28;20063;-68
2023/12/04 07:33:54;;;;;;;26.48;14.25;;;;;;;0.34;86.95;100530.41;5042924;28;20600;-68
2023/12/04 07:36:19;;;;;;;24.23;13.13;;;;;;;0.35;87.31;100539.72;5020856;28;20034;-69
2023/12/04 07:38:45;;;;;;;19.88;12.02;;;;;;;0.37;87.08;100534.69;5025196;28;20029;-68
2023/12/04 07:41:10;;;;;;;23.02;12.23;;;;;;;0.37;86.40;100524.53;5024652;28;20034;-68
2023/12/04 07:43:36;;;;;;;22.60;13.07;;;;;;;0.39;86.67;100530.50;5024176;28;20511;-69
2023/12/04 07:46:03;;;;;;;20.38;12.13;;;;;;;0.40;86.95;100540.75;5024815;28;20515;-68
2023/12/04 07:48:31;;;;;;;21.27;12.30;;;;;;;0.42;86.47;100534.00;5022928;28;20199;-68
2023/12/04 07:50:57;;;;;;;20.05;11.40;;;;;;;0.45;86.80;100529.00;5052220;28;20042;-68
2023/12/04 07:53:22;;;;;;;22.23;11.95;;;;;;;0.56;83.98;100473.34;5038294;28;20899;-69
2023/12/04 07:55:50;;;;;;;21.02;12.25;;;;;;;0.61;83.68;100461.66;5042969;28;20428;-69
2023/12/04 07:58:16;;;;;;;23.92;13.60;;;;;;;0.62;84.50;100494.72;5026999;28;20480;-68
2023/12/04 08:00:42;;;;;;;22.52;11.00;;;;;;;0.70;82.91;100456.81;5023220;28;20497;-67
2023/12/04 08:03:07;;;;;;;20.65;11.20;;;;;;;0.74;83.01;100456.03;5028947;28;20179;-68
2023/12/04 08:05:33;;;;;;;19.13;11.05;;;;;;;0.79;82.54;100439.22;5018592;28;20495;-68
2023/12/04 08:07:58;;;;;;;19.85;10.77;;;;;;;0.80;81.66;100432.44;5024700;28;20499;-68
2023/12/04 08:10:24;;;;;;;16.02;10.43;;;;;;;0.83;80.78;100405.41;5026978;28;20044;-68
2023/12/04 08:12:49;;;;;;;16.90;9.98;;;;;;;0.90;79.30;100373.34;5057178;28;20041;-68
2023/12/04 08:15:15;;;;;;;21.80;11.77;;;;;;;0.91;79.57;100385.25;5022298;28;20045;-68
2023/12/04 08:17:41;;;;;;;22.48;11.38;;;;;;;0.91;79.91;100395.44;5053429;28;20038;-68
2023/12/04 08:20:07;;;;;;;18.92;9.85;;;;;;;0.93;78.80;100369.19;5022922;28;20041;-68
2023/12/04 08:22:33;;;;;;;19.20;10.43;;;;;;;0.97;78.01;100357.41;5025082;28;20424;-68
2023/12/04 08:24:58;;;;;;;15.38;9.35;;;;;;;1.01;77.32;100342.22;5026783;28;20399;-68
2023/12/04 08:27:24;;;;;;;18.83;10.00;;;;;;;1.05;78.78;100373.69;5025781;28;20148;-69
2023/12/04 08:29:50;;;;;;;19.10;11.25;;;;;;;1.08;77.66;100338.16;5007694;28;20399;-69
2023/12/04 08:32:15;;;;;;;18.60;10.43;;;;;;;1.10;78.25;100355.16;5008437;28;20037;-68
2023/12/04 08:34:41;;;;;;;19.45;10.20;;;;;;;1.11;76.67;100321.25;5025648;28;20579;-68
2023/12/04 08:37:06;;;;;;;17.15;9.98;;;;;;;1.15;76.91;100324.75;5023601;28;20514;-68
2023/12/04 08:39:32;;;;;;;15.68;9.82;;;;;;;1.15;77.16;100329.84;5024702;28;20108;-69
2023/12/04 08:41:57;;;;;;;14.80;9.32;;;;;;;1.16;77.35;100342.59;5028500;28;20040;-67
2023/12/04 08:44:23;;;;;;;19.23;9.77;;;;;;;1.18;78.38;100351.09;5023103;28;20026;-68
2023/12/04 08:46:50;;;;;;;18.58;9.85;;;;;;;1.22;78.47;100360.53;5023259;28;20034;-68
2023/12/04 08:49:15;;;;;;;19.08;10.45;;;;;;;1.21;77.20;100323.16;5025134;28;20048;-68
2023/12/04 08:51:40;;;;;;;20.65;12.15;;;;;;;1.26;76.52;100311.41;5025094;28;20033;-67
2023/12/04 08:54:07;;;;;;;17.08;11.40;;;;;;;1.28;77.89;100353.03;5022315;28;20045;-69
2023/12/04 08:56:32;;;;;;;19.35;12.25;;;;;;;1.27;79.25;100378.47;5021878;28;20132;-68
2023/12/04 08:58:58;;;;;;;19.65;11.27;;;;;;;1.19;78.62;100359.59;5026319;28;20089;-68
2023/12/04 09:01:24;;;;;;;17.92;9.98;;;;;;;1.20;78.61;100357.09;5023327;28;20382;-68
2023/12/04 09:03:49;;;;;;;18.02;9.68;;;;;;;1.26;75.53;100303.78;5005110;28;20072;-68
2023/12/04 09:06:15;;;;;;;17.52;9.88;;;;;;;1.32;75.46;100294.53;5020997;28;20508;-68
2023/12/04 09:08:41;;;;;;;18.20;9.70;;;;;;;1.37;76.29;100319.28;5023930;28;20044;-67
2023/12/04 09:11:06;;;;;;;20.98;10.15;;;;;;;1.39;75.63;100298.94;5022298;28;20049;-68
2023/12/04 09:13:33;;;;;;;19.27;10.57;;;;;;;1.43;75.73;100299.03;5022976;28;20033;-68
2023/12/04 09:15:59;;;;;;;15.95;10.43;;;;;;;1.42;74.69;100276.94;5055711;28;20034;-68
2023/12/04 09:18:24;;;;;;;14.93;9.50;;;;;;;1.46;75.85;100291.47;5020169;28;20121;-68
2023/12/04 09:20:50;;;;;;;16.40;8.90;;;;;;;1.48;75.58;100276.22;5024841;28;20075;-68
2023/12/04 09:23:15;;;;;;;19.38;9.80;;;;;;;1.50;76.72;100303.44;5037753;28;20112;-67
2023/12/04 09:25:41;;;;;;;15.55;9.23;;;;;;;1.49;75.36;100263.50;5025650;28;20117;-67
2023/12/04 09:28:07;;;;;;;23.35;13.60;;;;;;;1.52;75.60;100263.56;5040228;28;20033;-68
2023/12/04 09:30:33;;;;;;;35.00;17.92;;;;;;;1.54;74.29;100233.88;5009864;28;20036;-68
2023/12/04 09:32:59;;;;;;;19.08;10.95;;;;;;;1.58;74.64;100245.84;5025201;28;20553;-69
2023/12/04 09:35:24;;;;;;;18.05;9.05;;;;;;;1.62;75.52;100252.75;5023217;28;20033;-68
2023/12/04 09:37:50;;;;;;;17.60;9.65;;;;;;;1.64;74.60;100238.34;5049930;28;20072;-68
2023/12/04 09:40:16;;;;;;;16.40;9.02;;;;;;;1.68;74.43;100231.63;5038200;28;20036;-69
2023/12/04 09:42:41;;;;;;;16.13;9.13;;;;;;;1.74;74.15;100219.00;5019912;28;20029;-68
2023/12/04 09:45:09;;;;;;;16.95;8.98;;;;;;;1.78;74.79;100225.84;5016816;28;20060;-68
2023/12/04 09:47:35;;;;;;;20.13;9.02;;;;;;;1.82;73.95;100208.09;5056506;28;20528;-68
2023/12/04 09:50:00;;;;;;;14.48;8.70;;;;;;;1.90;73.40;100202.25;5021644;28;20053;-68
2023/12/04 09:52:30;;;;;;;15.18;8.52;;;;;;;1.91;72.33;100187.00;5018502;28;20029;-67
2023/12/04 09:54:56;;;;;;;15.52;8.60;;;;;;;1.96;72.88;100194.72;5037710;28;20112;-68
2023/12/04 09:57:23;;;;;;;17.05;9.48;;;;;;;2.00;73.01;100201.59;5021845;28;20036;-68
2023/12/04 09:59:49;;;;;;;14.82;8.48;;;;;;;2.06;72.83;100188.94;5057914;28;20064;-68
2023/12/04 10:02:14;;;;;;;14.73;9.13;;;;;;;2.09;72.99;100182.22;5023316;28;20559;-68
2023/12/04 10:04:42;;;;;;;15.57;9.05;;;;;;;2.15;73.06;100189.09;5020256;28;20030;-68
2023/12/04 10:07:08;;;;;;;17.17;8.68;;;;;;;2.12;73.32;100199.25;5040636;28;20018;-68
2023/12/04 10:09:33;;;;;;;15.63;9.25;;;;;;;2.02;72.66;100190.59;5020505;28;20519;-67
2023/12/04 10:11:59;;;;;;;14.45;8.65;;;;;;;2.08;73.23;100185.59;5025155;28;20037;-67
2023/12/04 10:14:25;;;;;;;17.02;9.23;;;;;;;2.03;73.07;100186.34;5022381;28;20029;-68
2023/12/04 10:16:52;;;;;;;21.33;9.85;;;;;;;2.03;73.47;100186.34;5054941;28;20048;-67
2023/12/04 10:19:23;;;;;;;16.95;8.93;;;;;;;2.02;73.58;100198.22;5052373;28;20488;-68
2023/12/04 10:21:50;;;;;;;16.83;9.40;;;;;;;2.10;73.88;100193.28;5051627;28;20046;-68
2023/12/04 10:24:35;;;;;;;16.70;8.73;;;;;;;2.12;73.19;100174.63;5007192;28;20025;-68
2023/12/04 10:27:04;;;;;;;17.88;9.48;;;;;;;2.14;74.29;100190.78;5019059;28;20040;-68
2023/12/04 10:29:42;;;;;;;14.32;8.60;;;;;;;2.14;75.07;100195.03;5022037;28;20076;-68
2023/12/04 10:32:07;;;;;;;16.73;9.30;;;;;;;2.13;74.85;100191.59;5006375;28;20121;-68
2023/12/04 10:34:33;;;;;;;17.08;8.85;;;;;;;2.14;75.19;100205.22;5019142;28;20549;-67
2023/12/04 10:36:59;;;;;;;14.55;8.82;;;;;;;2.15;75.83;100212.03;5029263;28;20393;-68
2023/12/04 10:39:28;;;;;;;14.75;9.32;;;;;;;2.17;76.41;100220.56;5057175;28;20062;-68
2023/12/04 10:42:03;;;;;;;13.95;9.13;;;;;;;2.19;76.75;100218.94;5022422;28;20556;-66
2023/12/04 10:44:31;;;;;;;16.25;8.57;;;;;;;2.25;77.48;100232.59;5036744;28;20042;-68
2023/12/04 10:47:00;;;;;;;13.95;9.15;;;;;;;2.27;76.72;100215.66;5021710;28;20029;-68
2023/12/04 10:49:28;;;;;;;17.10;8.48;;;;;;;2.25;77.87;100214.75;5054780;28;20504;-68
2023/12/04 10:52:01;;;;;;;17.42;10.27;;;;;;;2.23;78.48;100225.75;5022542;28;20117;-68
2023/12/04 10:54:27;;;;;;;15.25;8.35;;;;;;;2.22;77.91;100217.25;5027076;28;20040;-68
2023/12/04 10:56:58;;;;;;;14.90;9.23;;;;;;;2.15;78.38;100223.09;5059876;28;20037;-68
2023/12/04 10:59:27;;;;;;;19.00;10.18;;;;;;;2.10;77.28;100193.28;5052952;28;20540;-67
2023/12/04 11:01:55;;;;;;;13.48;8.48;;;;;;;2.12;77.61;100199.25;5041825;28;20060;-67
2023/12/04 11:04:26;;;;;;;17.30;9.00;;;;;;;2.08;78.28;100207.66;5023577;28;20025;-67
2023/12/04 11:06:54;;;;;;;16.35;9.50;;;;;;;2.07;77.92;100201.75;5034408;28;20034;-67
2023/12/04 11:09:26;;;;;;;18.27;10.00;;;;;;;2.07;78.13;100191.53;5025058;28;20041;-67
2023/12/04 11:11:57;;;;;;;18.95;10.00;;;;;;;2.03;78.22;100205.06;5024296;28;20216;-67
2023/12/04 11:14:25;;;;;;;15.07;9.13;;;;;;;2.03;78.65;100214.38;5040308;28;20034;-67